createdAt,value
2023-07-31T00:01:43.165Z,58.20
2023-07-31T00:06:46.874Z,58.20
2023-07-31T00:11:50.276Z,58.10
2023-07-31T00:16:55.206Z,58.10
2023-07-31T00:21:58.575Z,57.90
2023-07-31T00:27:02.365Z,57.90
2023-07-31T00:32:08.387Z,57.80
2023-07-31T00:37:12.053Z,57.90
2023-07-31T00:42:15.447Z,57.80
2023-07-31T00:47:20.311Z,58.50
2023-07-31T00:52:24.113Z,57.80
2023-07-31T00:57:27.653Z,57.80
2023-07-31T01:02:32.813Z,57.70
2023-07-31T01:07:44.655Z,57.80
2023-07-31T01:12:50.096Z,57.90
2023-07-31T01:17:54.843Z,57.90
2023-07-31T01:23:26.075Z,57.90
2023-07-31T01:28:40.783Z,58.00
2023-07-31T01:33:44.897Z,57.90
2023-07-31T01:38:48.450Z,57.90
2023-07-31T01:43:53.260Z,57.90
2023-07-31T01:48:57.392Z,58.00
2023-07-31T01:54:01.135Z,58.00
2023-07-31T01:59:06.001Z,58.00
2023-07-31T02:04:09.598Z,58.10
2023-07-31T02:09:14.316Z,58.10
2023-07-31T02:14:19.099Z,58.10
2023-07-31T02:19:22.593Z,58.10
2023-07-31T02:24:26.491Z,58.10
2023-07-31T02:29:31.394Z,58.20
2023-07-31T02:34:34.812Z,58.20
2023-07-31T02:39:38.223Z,58.30
2023-07-31T02:44:43.011Z,58.30
2023-07-31T02:49:46.508Z,58.30
2023-07-31T02:54:50.000Z,59.00
2023-07-31T02:59:55.007Z,58.30
2023-07-31T03:04:58.479Z,58.40
2023-07-31T03:10:01.898Z,58.30
2023-07-31T03:15:08.262Z,58.40
2023-07-31T03:20:12.942Z,58.50
2023-07-31T03:25:16.856Z,58.50
2023-07-31T03:30:21.801Z,58.50
2023-07-31T03:35:25.198Z,58.60
2023-07-31T03:40:28.629Z,58.60
2023-07-31T03:45:33.433Z,58.70
2023-07-31T03:50:36.920Z,58.80
2023-07-31T03:55:40.444Z,59.00
2023-07-31T04:00:45.371Z,59.00
2023-07-31T04:05:49.056Z,59.30
2023-07-31T04:10:52.596Z,59.30
2023-07-31T04:15:57.310Z,59.40
2023-07-31T04:21:02.485Z,59.60
2023-07-31T04:26:06.038Z,59.60
2023-07-31T04:31:11.063Z,59.70
2023-07-31T04:36:14.573Z,59.70
2023-07-31T04:41:18.080Z,59.80
2023-07-31T04:46:23.067Z,59.80
2023-07-31T04:51:26.579Z,59.80
2023-07-31T04:56:30.155Z,59.70
2023-07-31T05:01:35.232Z,59.70
2023-07-31T05:06:39.062Z,59.70
2023-07-31T05:11:44.151Z,59.60
2023-07-31T05:16:49.116Z,59.60
2023-07-31T05:21:52.572Z,59.50
2023-07-31T05:26:56.069Z,59.50
2023-07-31T05:32:00.886Z,59.60
2023-07-31T05:37:04.524Z,59.40
2023-07-31T05:42:08.389Z,59.30
2023-07-31T05:47:13.273Z,59.30
2023-07-31T05:52:16.840Z,59.30
2023-07-31T05:57:20.376Z,59.30
2023-07-31T06:02:25.408Z,59.30
2023-07-31T06:07:28.891Z,59.30
2023-07-31T06:12:32.499Z,59.30
2023-07-31T06:17:37.450Z,59.30
2023-07-31T06:22:41.019Z,59.20
2023-07-31T06:27:44.440Z,59.10
2023-07-31T06:32:49.380Z,59.00
2023-07-31T06:37:52.992Z,58.70
2023-07-31T06:42:56.454Z,58.50
2023-07-31T06:48:02.935Z,58.30
2023-07-31T06:53:06.478Z,58.00
2023-07-31T06:58:09.948Z,58.10
2023-07-31T07:03:16.132Z,58.80
2023-07-31T07:08:19.659Z,57.90
2023-07-31T07:13:23.459Z,57.70
2023-07-31T07:18:28.463Z,57.30
2023-07-31T07:23:32.048Z,56.90
2023-07-31T07:28:35.614Z,56.80
2023-07-31T07:33:40.551Z,56.30
2023-07-31T07:38:44.064Z,56.00
2023-07-31T07:43:47.440Z,56.10
2023-07-31T07:48:52.200Z,56.10
2023-07-31T07:53:56.253Z,55.80
2023-07-31T07:58:59.732Z,55.70
2023-07-31T08:04:04.638Z,55.60
2023-07-31T08:09:09.624Z,54.70
2023-07-31T08:14:13.014Z,54.70
2023-07-31T08:19:19.715Z,54.80
2023-07-31T08:24:23.319Z,54.10
2023-07-31T08:29:27.818Z,54.30
2023-07-31T08:34:32.694Z,54.10
2023-07-31T08:39:36.132Z,54.10
2023-07-31T08:44:40.703Z,54.10
2023-07-31T08:49:48.548Z,53.60
2023-07-31T08:54:52.053Z,53.00
2023-07-31T08:59:55.987Z,52.90
2023-07-31T09:05:01.237Z,52.80
2023-07-31T09:10:04.920Z,52.40
2023-07-31T09:15:13.335Z,52.50
2023-07-31T09:20:26.000Z,52.20
2023-07-31T09:25:29.699Z,52.00
2023-07-31T09:30:33.832Z,52.10
2023-07-31T09:35:39.023Z,52.00
2023-07-31T09:40:44.242Z,51.70
2023-07-31T09:45:48.436Z,51.80
2023-07-31T09:50:53.421Z,51.50
2023-07-31T09:55:58.428Z,51.40
2023-07-31T10:01:02.743Z,52.10
2023-07-31T10:06:09.828Z,51.10
2023-07-31T10:11:15.401Z,50.40
2023-07-31T10:16:20.087Z,50.60
2023-07-31T10:21:25.052Z,50.40
2023-07-31T10:26:28.909Z,50.30
2023-07-31T10:31:32.532Z,50.10
2023-07-31T10:36:37.670Z,49.70
2023-07-31T10:41:42.673Z,49.20
2023-07-31T10:46:48.009Z,49.30
2023-07-31T10:51:52.813Z,48.50
2023-07-31T10:56:56.422Z,48.30
2023-07-31T11:02:03.578Z,48.30
2023-07-31T11:07:11.857Z,48.10
2023-07-31T11:12:15.281Z,47.70
2023-07-31T11:17:18.750Z,46.90
2023-07-31T11:22:24.167Z,46.70
2023-07-31T11:27:30.474Z,46.10
2023-07-31T11:32:33.936Z,45.40
2023-07-31T11:37:46.726Z,46.00
2023-07-31T11:42:50.175Z,44.50
2023-07-31T11:47:53.882Z,45.80
2023-07-31T11:53:02.960Z,45.70
2023-07-31T11:58:06.882Z,44.40
2023-07-31T12:03:11.227Z,45.00
2023-07-31T12:08:17.344Z,44.70
2023-07-31T12:13:24.228Z,44.40
2023-07-31T12:18:30.118Z,43.40
2023-07-31T12:23:36.045Z,43.70
2023-07-31T12:28:40.654Z,43.40
2023-07-31T12:33:44.386Z,43.20
2023-07-31T12:38:49.745Z,43.00
2023-07-31T12:43:53.384Z,42.60
2023-07-31T12:48:56.801Z,42.40
2023-07-31T12:54:01.860Z,42.00
2023-07-31T12:59:05.269Z,41.60
2023-07-31T13:04:09.776Z,41.70
2023-07-31T13:09:14.663Z,42.00
2023-07-31T13:14:18.248Z,42.40
2023-07-31T13:19:21.818Z,41.90
2023-07-31T13:24:27.194Z,41.80
2023-07-31T13:29:31.220Z,41.40
2023-07-31T13:34:34.660Z,41.40
2023-07-31T13:39:39.515Z,41.20
2023-07-31T13:44:43.830Z,40.50
2023-07-31T13:49:47.251Z,40.30
2023-07-31T13:54:51.980Z,39.80
2023-07-31T13:59:55.335Z,39.50
2023-07-31T14:04:58.975Z,39.60
2023-07-31T14:10:05.987Z,39.30
2023-07-31T14:15:10.235Z,38.90
2023-07-31T14:20:14.845Z,39.10
2023-07-31T14:25:20.036Z,38.90
2023-07-31T14:30:24.455Z,38.70
2023-07-31T14:35:27.881Z,38.80
2023-07-31T14:40:32.804Z,38.60
2023-07-31T14:45:36.325Z,38.50
2023-07-31T14:50:40.127Z,38.70
2023-07-31T14:55:44.928Z,38.90
2023-07-31T15:00:48.459Z,38.90
2023-07-31T15:05:51.844Z,39.10
2023-07-31T15:10:58.688Z,38.90
2023-07-31T15:16:02.524Z,38.80
2023-07-31T15:21:07.978Z,39.10
2023-07-31T15:26:13.199Z,39.00
2023-07-31T15:31:16.757Z,39.00
2023-07-31T15:36:20.332Z,39.20
2023-07-31T15:41:26.481Z,39.10
2023-07-31T15:46:30.058Z,39.10
2023-07-31T15:51:33.678Z,39.30
2023-07-31T15:56:38.686Z,39.40
2023-07-31T16:01:42.367Z,39.20
2023-07-31T16:06:45.857Z,39.50
2023-07-31T16:11:51.047Z,39.50
2023-07-31T16:16:54.937Z,39.60
2023-07-31T16:21:58.740Z,39.90
2023-07-31T16:27:03.608Z,39.90
2023-07-31T16:32:11.766Z,39.90
2023-07-31T16:37:15.902Z,40.20
2023-07-31T16:42:21.039Z,40.30
2023-07-31T16:47:24.551Z,40.40
2023-07-31T16:52:29.099Z,40.70
2023-07-31T16:57:33.958Z,40.80
2023-07-31T17:02:37.581Z,41.10
2023-07-31T17:07:41.046Z,41.10
2023-07-31T17:12:45.940Z,41.30
2023-07-31T17:17:53.771Z,41.40
2023-07-31T17:22:57.492Z,41.50
2023-07-31T17:28:03.068Z,41.60
2023-07-31T17:33:07.127Z,41.70
2023-07-31T17:38:11.603Z,41.90
2023-07-31T17:43:17.379Z,42.10
2023-07-31T17:48:22.460Z,42.10
2023-07-31T17:53:26.467Z,42.40
2023-07-31T17:58:32.335Z,42.60
2023-07-31T18:03:37.143Z,43.40
2023-07-31T18:08:41.808Z,43.00
2023-07-31T18:13:49.524Z,43.10
2023-07-31T18:18:55.428Z,43.50
2023-07-31T18:24:00.163Z,43.70
2023-07-31T18:29:06.615Z,44.00
2023-07-31T18:34:11.669Z,44.50
2023-07-31T18:39:17.032Z,44.80
2023-07-31T18:44:23.323Z,44.90
2023-07-31T18:49:28.329Z,45.20
2023-07-31T18:54:32.485Z,45.40
2023-07-31T18:59:38.008Z,45.60
2023-07-31T19:04:42.164Z,46.30
2023-07-31T19:09:49.076Z,47.00
2023-07-31T19:14:59.499Z,46.40
2023-07-31T19:20:04.065Z,47.00
2023-07-31T19:25:09.727Z,47.00
2023-07-31T19:30:15.581Z,47.10
2023-07-31T19:35:20.465Z,47.60
2023-07-31T19:40:25.772Z,47.50
2023-07-31T19:45:33.130Z,47.70
2023-07-31T19:50:37.969Z,48.00
2023-07-31T19:55:42.679Z,48.00
2023-07-31T20:00:48.716Z,48.10
2023-07-31T20:05:54.224Z,48.40
2023-07-31T20:11:00.852Z,48.30
2023-07-31T20:16:07.566Z,48.30
2023-07-31T20:21:11.990Z,48.40
2023-07-31T20:26:16.265Z,48.30
2023-07-31T20:31:22.959Z,48.30
2023-07-31T20:36:27.818Z,48.50
2023-07-31T20:41:31.988Z,48.40
2023-07-31T20:46:37.844Z,48.40
2023-07-31T20:51:44.840Z,48.50
2023-07-31T20:56:50.254Z,48.50
2023-07-31T21:01:55.945Z,48.50
2023-07-31T21:06:59.404Z,48.60
2023-07-31T21:12:02.892Z,48.50
2023-07-31T21:17:08.631Z,48.60
2023-07-31T21:22:12.138Z,48.90
2023-07-31T21:27:15.539Z,49.10
2023-07-31T21:32:20.478Z,49.30
2023-07-31T21:37:23.880Z,49.60
2023-07-31T21:42:27.333Z,49.80
2023-07-31T21:47:32.290Z,49.80
2023-07-31T21:52:35.849Z,50.00
2023-07-31T21:57:39.271Z,50.00
2023-07-31T22:02:44.357Z,50.20
2023-07-31T22:07:48.026Z,50.40
2023-07-31T22:12:51.748Z,50.50
2023-07-31T22:17:57.147Z,50.70
2023-07-31T22:23:00.684Z,50.90
2023-07-31T22:28:14.743Z,50.90
2023-07-31T22:33:25.301Z,51.00
2023-07-31T22:38:28.751Z,51.30
2023-07-31T22:43:32.463Z,51.30
2023-07-31T22:48:37.501Z,51.50
2023-07-31T22:53:40.940Z,51.70
2023-07-31T22:58:44.424Z,51.80
2023-07-31T23:03:49.248Z,51.90
2023-07-31T23:08:52.677Z,52.20
2023-07-31T23:13:56.100Z,52.00
2023-07-31T23:19:00.988Z,52.20
2023-07-31T23:24:04.612Z,52.50
2023-07-31T23:29:08.065Z,52.40
2023-07-31T23:34:12.917Z,52.40
2023-07-31T23:39:16.407Z,52.70
2023-07-31T23:44:19.806Z,52.70
2023-07-31T23:49:24.604Z,52.80
2023-07-31T23:54:28.157Z,53.10
2023-07-31T23:59:31.679Z,53.10
